Greenville Spartanburg International Airport
KGSP : now visible

Airfield :











YOU CAN JOIN US ON...

 
LOGIN :

Register | Disclaimer

   EN    FR    IT 

 









Legend :    VFR   Marginal VFR   IFR   Intensive IFR   Very Intensive IFR
Visi :
Ceiling :
>= 8 km
>= 3000ft
5 to 8 km
1000 to 3000 ft
1500m to 5 km
500 to 1000 ft
800 to 1500m
200 to 500 ft
< 800m
< 200 ft
Symbols :   Thunderstorms  Fog  Heavy snow  Heavy precipitations  Wind > 20 kt






- Airport Elevation : 964 ft
- IATA code : GSP


KGSP - Greenville Spartanburg International

CURRENT METAR :
  • 181153Z 00000KT 10SM OVC038 03/M04 A3050 RMK AO2 SLP330 T00281044 10039 20022 56016

EXPIRED METARs :
  • 181053Z AUTO 01003KT 10SM OVC044 02/M04 A3050 RMK AO2 SLP331 T00221039
  • 180953Z AUTO 11004KT 10SM BKN045 03/M07 A3052 RMK AO2 SLP337 T00331067

TAF KGSP
Valid from the 18 at 12:00 until the 19 at 12:00 UTC


181130Z 1812/1912 04004KT P6SM OVC040
FM181500 05004KT P6SM VCSH OVC019
TEMPO 1817/1820 4SM -RA BR OVC008
FM182000 17005KT 4SM -RA BR OVC004
PROB30 1900/1905 1SM -RA BR OVC002
FM190900 24008KT P6SM BKN010



MET'MAP, your aeronautical weather chart ! - Copyright ORBIFLY December 2007 - Disclaimer

ORBIFLY MET'MAP TEAM :

Programming & Development : Alexandra Zaïnal
Concept & original design : Baudouin d'Aumeries
Assistance for programming : Marc-Olivier Méhu
Technical & hardware support : Manuel Goepfert

Contact : metmap@orbifly.com




SOURCES & CREDITS :

   NOAA       Earth
Advisory